sensor_id;sensor_type;location;lat;lon;timestamp;temperature;humidity
30037;DHT22;36325;51.512;-0.382;2023-11-22T00:01:26;7.40;99.90
30037;DHT22;36325;51.512;-0.382;2023-11-22T00:03:56;7.40;99.90
30037;DHT22;36325;51.512;-0.382;2023-11-22T00:06:25;7.40;99.90
30037;DHT22;36325;51.512;-0.382;2023-11-22T00:08:54;7.30;99.90
30037;DHT22;36325;51.512;-0.382;2023-11-22T00:11:21;7.30;99.90
30037;DHT22;36325;51.512;-0.382;2023-11-22T00:13:48;7.30;99.90
30037;DHT22;36325;51.512;-0.382;2023-11-22T00:16:16;7.20;99.90
30037;DHT22;36325;51.512;-0.382;2023-11-22T00:18:43;7.20;99.90
30037;DHT22;36325;51.512;-0.382;2023-11-22T00:21:12;7.10;99.90
30037;DHT22;36325;51.512;-0.382;2023-11-22T00:23:40;7.10;99.90
30037;DHT22;36325;51.512;-0.382;2023-11-22T00:26:09;7.10;99.90
30037;DHT22;36325;51.512;-0.382;2023-11-22T00:28:42;7.10;99.90
30037;DHT22;36325;51.512;-0.382;2023-11-22T00:31:09;7.10;99.90
30037;DHT22;36325;51.512;-0.382;2023-11-22T00:33:37;7.10;99.90
30037;DHT22;36325;51.512;-0.382;2023-11-22T00:36:08;7.10;99.90
30037;DHT22;36325;51.512;-0.382;2023-11-22T00:38:35;7.10;99.90
30037;DHT22;36325;51.512;-0.382;2023-11-22T00:41:05;7.10;99.90
30037;DHT22;36325;51.512;-0.382;2023-11-22T00:43:35;7.10;99.90
30037;DHT22;36325;51.512;-0.382;2023-11-22T00:46:08;7.10;99.90
30037;DHT22;36325;51.512;-0.382;2023-11-22T00:48:35;7.10;99.90
30037;DHT22;36325;51.512;-0.382;2023-11-22T00:51:04;7.10;99.90
30037;DHT22;36325;51.512;-0.382;2023-11-22T00:53:36;7.10;99.90
30037;DHT22;36325;51.512;-0.382;2023-11-22T00:56:04;7.10;99.90
30037;DHT22;36325;51.512;-0.382;2023-11-22T00:58:34;7.10;99.90
30037;DHT22;36325;51.512;-0.382;2023-11-22T01:01:04;7.10;99.90
30037;DHT22;36325;51.512;-0.382;2023-11-22T01:03:34;7.10;99.90
30037;DHT22;36325;51.512;-0.382;2023-11-22T01:06:02;7.20;99.90
30037;DHT22;36325;51.512;-0.382;2023-11-22T01:08:34;7.20;99.90
30037;DHT22;36325;51.512;-0.382;2023-11-22T01:11:04;7.20;99.90
30037;DHT22;36325;51.512;-0.382;2023-11-22T01:13:37;7.20;99.90
30037;DHT22;36325;51.512;-0.382;2023-11-22T01:16:10;7.20;99.90
30037;DHT22;36325;51.512;-0.382;2023-11-22T01:18:39;7.20;99.90
30037;DHT22;36325;51.512;-0.382;2023-11-22T01:21:11;7.20;99.90
30037;DHT22;36325;51.512;-0.382;2023-11-22T01:23:41;7.20;99.90
30037;DHT22;36325;51.512;-0.382;2023-11-22T01:26:14;7.20;99.90
30037;DHT22;36325;51.512;-0.382;2023-11-22T01:28:43;7.30;99.90
30037;DHT22;36325;51.512;-0.382;2023-11-22T01:31:12;7.30;99.90
30037;DHT22;36325;51.512;-0.382;2023-11-22T01:33:40;7.40;99.90
30037;DHT22;36325;51.512;-0.382;2023-11-22T01:36:13;7.40;99.90
30037;DHT22;36325;51.512;-0.382;2023-11-22T01:38:43;7.50;99.90
30037;DHT22;36325;51.512;-0.382;2023-11-22T01:41:13;7.40;99.90
30037;DHT22;36325;51.512;-0.382;2023-11-22T01:43:41;7.50;99.90
30037;DHT22;36325;51.512;-0.382;2023-11-22T01:46:10;7.50;99.90
30037;DHT22;36325;51.512;-0.382;2023-11-22T01:48:45;7.50;99.90
30037;DHT22;36325;51.512;-0.382;2023-11-22T01:51:17;7.50;99.90
30037;DHT22;36325;51.512;-0.382;2023-11-22T01:53:44;7.50;99.90
30037;DHT22;36325;51.512;-0.382;2023-11-22T01:56:12;7.50;99.90
30037;DHT22;36325;51.512;-0.382;2023-11-22T01:58:45;7.50;99.90
30037;DHT22;36325;51.512;-0.382;2023-11-22T02:01:15;7.50;99.90
30037;DHT22;36325;51.512;-0.382;2023-11-22T02:03:45;7.50;99.90
30037;DHT22;36325;51.512;-0.382;2023-11-22T02:06:17;7.50;99.90
30037;DHT22;36325;51.512;-0.382;2023-11-22T02:08:45;7.50;99.90
30037;DHT22;36325;51.512;-0.382;2023-11-22T02:11:13;7.50;99.90
30037;DHT22;36325;51.512;-0.382;2023-11-22T02:13:45;7.50;99.90
30037;DHT22;36325;51.512;-0.382;2023-11-22T02:16:15;7.60;99.90
30037;DHT22;36325;51.512;-0.382;2023-11-22T02:18:47;7.60;99.90
30037;DHT22;36325;51.512;-0.382;2023-11-22T02:21:16;7.60;99.90
30037;DHT22;36325;51.512;-0.382;2023-11-22T02:23:45;7.60;99.90
30037;DHT22;36325;51.512;-0.382;2023-11-22T02:26:17;7.70;99.90
30037;DHT22;36325;51.512;-0.382;2023-11-22T02:28:46;7.60;99.90
30037;DHT22;36325;51.512;-0.382;2023-11-22T02:31:15;7.70;99.90
30037;DHT22;36325;51.512;-0.382;2023-11-22T02:33:43;7.70;99.90
30037;DHT22;36325;51.512;-0.382;2023-11-22T02:36:11;7.60;99.90
30037;DHT22;36325;51.512;-0.382;2023-11-22T02:38:40;7.70;99.90
30037;DHT22;36325;51.512;-0.382;2023-11-22T02:41:08;7.60;99.90
30037;DHT22;36325;51.512;-0.382;2023-11-22T02:43:36;7.60;99.90
30037;DHT22;36325;51.512;-0.382;2023-11-22T02:46:12;7.60;99.90
30037;DHT22;36325;51.512;-0.382;2023-11-22T02:48:43;7.60;99.90
30037;DHT22;36325;51.512;-0.382;2023-11-22T02:51:12;7.60;99.90
30037;DHT22;36325;51.512;-0.382;2023-11-22T02:53:41;7.70;99.90
30037;DHT22;36325;51.512;-0.382;2023-11-22T02:56:17;7.60;99.90
30037;DHT22;36325;51.512;-0.382;2023-11-22T02:58:44;7.60;99.90
30037;DHT22;36325;51.512;-0.382;2023-11-22T03:01:14;7.60;99.90
30037;DHT22;36325;51.512;-0.382;2023-11-22T03:03:44;7.60;99.90
30037;DHT22;36325;51.512;-0.382;2023-11-22T03:06:12;7.60;99.90
30037;DHT22;36325;51.512;-0.382;2023-11-22T03:08:44;7.60;99.90
30037;DHT22;36325;51.512;-0.382;2023-11-22T03:11:12;7.50;99.90
30037;DHT22;36325;51.512;-0.382;2023-11-22T03:13:40;7.50;99.90
30037;DHT22;36325;51.512;-0.382;2023-11-22T03:16:07;7.50;99.90
30037;DHT22;36325;51.512;-0.382;2023-11-22T03:18:36;7.50;99.90
30037;DHT22;36325;51.512;-0.382;2023-11-22T03:21:09;7.40;99.90
30037;DHT22;36325;51.512;-0.382;2023-11-22T03:23:38;7.50;99.90
30037;DHT22;36325;51.512;-0.382;2023-11-22T03:26:08;7.40;99.90
30037;DHT22;36325;51.512;-0.382;2023-11-22T03:28:37;7.40;99.90
30037;DHT22;36325;51.512;-0.382;2023-11-22T03:31:08;7.40;99.90
30037;DHT22;36325;51.512;-0.382;2023-11-22T03:33:36;7.30;99.90
30037;DHT22;36325;51.512;-0.382;2023-11-22T03:36:07;7.30;99.90
30037;DHT22;36325;51.512;-0.382;2023-11-22T03:38:38;7.30;99.90
30037;DHT22;36325;51.512;-0.382;2023-11-22T03:41:10;7.30;99.90
30037;DHT22;36325;51.512;-0.382;2023-11-22T03:43:39;7.20;99.90
30037;DHT22;36325;51.512;-0.382;2023-11-22T03:46:07;7.20;99.90
30037;DHT22;36325;51.512;-0.382;2023-11-22T03:48:36;7.10;99.90
30037;DHT22;36325;51.512;-0.382;2023-11-22T03:51:05;7.00;99.90
30037;DHT22;36325;51.512;-0.382;2023-11-22T03:53:38;7.00;99.90
30037;DHT22;36325;51.512;-0.382;2023-11-22T03:56:08;7.00;99.90
30037;DHT22;36325;51.512;-0.382;2023-11-22T03:58:37;6.90;99.90
30037;DHT22;36325;51.512;-0.382;2023-11-22T04:03:35;6.90;99.90
30037;DHT22;36325;51.512;-0.382;2023-11-22T04:06:05;6.80;99.90
30037;DHT22;36325;51.512;-0.382;2023-11-22T04:08:32;6.80;99.90
30037;DHT22;36325;51.512;-0.382;2023-11-22T04:13:32;6.70;99.90
30037;DHT22;36325;51.512;-0.382;2023-11-22T04:16:00;6.70;99.90
30037;DHT22;36325;51.512;-0.382;2023-11-22T04:18:29;7.20;99.90
30037;DHT22;36325;51.512;-0.382;2023-11-22T04:20:58;6.60;99.90
30037;DHT22;36325;51.512;-0.382;2023-11-22T04:23:30;6.60;99.90
30037;DHT22;36325;51.512;-0.382;2023-11-22T04:25:58;6.60;99.90
30037;DHT22;36325;51.512;-0.382;2023-11-22T04:28:28;6.60;99.90
30037;DHT22;36325;51.512;-0.382;2023-11-22T04:30:59;6.60;99.90
30037;DHT22;36325;51.512;-0.382;2023-11-22T04:33:27;6.60;99.90
30037;DHT22;36325;51.512;-0.382;2023-11-22T04:35:57;6.60;99.90
30037;DHT22;36325;51.512;-0.382;2023-11-22T04:38:26;6.60;99.90
30037;DHT22;36325;51.512;-0.382;2023-11-22T04:40:55;6.60;99.90
30037;DHT22;36325;51.512;-0.382;2023-11-22T04:43:23;6.70;99.90
30037;DHT22;36325;51.512;-0.382;2023-11-22T04:45:52;6.70;99.90
30037;DHT22;36325;51.512;-0.382;2023-11-22T04:48:20;6.80;99.90
30037;DHT22;36325;51.512;-0.382;2023-11-22T04:53:43;6.80;99.90
30037;DHT22;36325;51.512;-0.382;2023-11-22T04:56:17;6.90;99.90
30037;DHT22;36325;51.512;-0.382;2023-11-22T04:58:47;6.90;99.90
30037;DHT22;36325;51.512;-0.382;2023-11-22T05:01:18;6.90;99.90
30037;DHT22;36325;51.512;-0.382;2023-11-22T05:03:50;6.80;99.90
30037;DHT22;36325;51.512;-0.382;2023-11-22T05:06:17;6.80;99.90
30037;DHT22;36325;51.512;-0.382;2023-11-22T05:08:46;6.80;99.90
30037;DHT22;36325;51.512;-0.382;2023-11-22T05:11:15;6.70;99.90
30037;DHT22;36325;51.512;-0.382;2023-11-22T05:13:46;6.80;99.90
30037;DHT22;36325;51.512;-0.382;2023-11-22T05:16:14;6.80;99.90
30037;DHT22;36325;51.512;-0.382;2023-11-22T05:18:42;6.80;99.90
30037;DHT22;36325;51.512;-0.382;2023-11-22T05:21:12;6.80;99.90
30037;DHT22;36325;51.512;-0.382;2023-11-22T05:23:39;6.80;99.90
30037;DHT22;36325;51.512;-0.382;2023-11-22T05:26:10;6.90;99.90
30037;DHT22;36325;51.512;-0.382;2023-11-22T05:28:37;6.90;99.90
30037;DHT22;36325;51.512;-0.382;2023-11-22T05:31:06;6.90;99.90
30037;DHT22;36325;51.512;-0.382;2023-11-22T05:33:34;6.90;99.90
30037;DHT22;36325;51.512;-0.382;2023-11-22T05:36:03;6.90;99.90
30037;DHT22;36325;51.512;-0.382;2023-11-22T05:38:32;6.90;99.90
30037;DHT22;36325;51.512;-0.382;2023-11-22T05:41:08;6.90;99.90
30037;DHT22;36325;51.512;-0.382;2023-11-22T05:43:41;7.00;99.90
30037;DHT22;36325;51.512;-0.382;2023-11-22T05:46:11;6.90;99.90
30037;DHT22;36325;51.512;-0.382;2023-11-22T05:48:41;6.90;99.90
30037;DHT22;36325;51.512;-0.382;2023-11-22T05:51:09;7.00;99.90
30037;DHT22;36325;51.512;-0.382;2023-11-22T05:53:38;7.00;99.90
30037;DHT22;36325;51.512;-0.382;2023-11-22T05:56:09;6.40;99.90
30037;DHT22;36325;51.512;-0.382;2023-11-22T05:58:37;6.90;99.90
30037;DHT22;36325;51.512;-0.382;2023-11-22T06:01:09;6.90;99.90
30037;DHT22;36325;51.512;-0.382;2023-11-22T06:03:39;6.90;99.90
30037;DHT22;36325;51.512;-0.382;2023-11-22T06:06:07;6.80;99.90
30037;DHT22;36325;51.512;-0.382;2023-11-22T06:08:39;4.40;99.90
30037;DHT22;36325;51.512;-0.382;2023-11-22T06:11:09;6.80;99.90
30037;DHT22;36325;51.512;-0.382;2023-11-22T06:13:39;6.80;99.90
30037;DHT22;36325;51.512;-0.382;2023-11-22T06:16:07;6.70;99.90
30037;DHT22;36325;51.512;-0.382;2023-11-22T06:18:35;6.70;99.90
30037;DHT22;36325;51.512;-0.382;2023-11-22T06:21:07;6.70;99.90
30037;DHT22;36325;51.512;-0.382;2023-11-22T06:23:35;6.60;99.90
30037;DHT22;36325;51.512;-0.382;2023-11-22T06:26:06;6.60;99.90
30037;DHT22;36325;51.512;-0.382;2023-11-22T06:28:33;6.60;99.90
30037;DHT22;36325;51.512;-0.382;2023-11-22T06:31:02;6.60;99.90
30037;DHT22;36325;51.512;-0.382;2023-11-22T06:33:32;6.60;99.90
30037;DHT22;36325;51.512;-0.382;2023-11-22T06:35:59;6.60;99.90
30037;DHT22;36325;51.512;-0.382;2023-11-22T06:38:27;6.70;99.90
30037;DHT22;36325;51.512;-0.382;2023-11-22T06:40:56;6.70;99.90
30037;DHT22;36325;51.512;-0.382;2023-11-22T06:43:23;6.80;99.90
30037;DHT22;36325;51.512;-0.382;2023-11-22T06:45:51;6.80;99.90
30037;DHT22;36325;51.512;-0.382;2023-11-22T06:48:20;6.90;99.90
30037;DHT22;36325;51.512;-0.382;2023-11-22T06:50:48;7.00;99.90
30037;DHT22;36325;51.512;-0.382;2023-11-22T06:53:25;7.00;99.90
30037;DHT22;36325;51.512;-0.382;2023-11-22T06:55:55;7.00;99.90
30037;DHT22;36325;51.512;-0.382;2023-11-22T06:58:24;7.00;99.90
30037;DHT22;36325;51.512;-0.382;2023-11-22T07:00:53;7.10;99.90
30037;DHT22;36325;51.512;-0.382;2023-11-22T07:03:26;7.10;99.90
30037;DHT22;36325;51.512;-0.382;2023-11-22T07:05:56;7.00;99.90
30037;DHT22;36325;51.512;-0.382;2023-11-22T07:08:24;7.10;99.90
30037;DHT22;36325;51.512;-0.382;2023-11-22T07:10:55;7.10;99.90
30037;DHT22;36325;51.512;-0.382;2023-11-22T07:13:25;7.20;99.90
30037;DHT22;36325;51.512;-0.382;2023-11-22T07:15:55;7.20;99.90
30037;DHT22;36325;51.512;-0.382;2023-11-22T07:18:25;7.20;99.90
30037;DHT22;36325;51.512;-0.382;2023-11-22T07:20:55;7.20;99.90
30037;DHT22;36325;51.512;-0.382;2023-11-22T07:23:23;6.80;99.90
30037;DHT22;36325;51.512;-0.382;2023-11-22T07:25:57;7.20;99.90
30037;DHT22;36325;51.512;-0.382;2023-11-22T07:31:21;7.10;99.90
30037;DHT22;36325;51.512;-0.382;2023-11-22T07:33:50;7.10;99.90
30037;DHT22;36325;51.512;-0.382;2023-11-22T07:36:19;7.10;99.90
30037;DHT22;36325;51.512;-0.382;2023-11-22T07:38:47;7.10;99.90
30037;DHT22;36325;51.512;-0.382;2023-11-22T07:41:17;7.10;99.90
30037;DHT22;36325;51.512;-0.382;2023-11-22T07:43:45;7.10;99.90
30037;DHT22;36325;51.512;-0.382;2023-11-22T07:46:13;7.20;99.90
30037;DHT22;36325;51.512;-0.382;2023-11-22T07:48:43;7.20;99.90
30037;DHT22;36325;51.512;-0.382;2023-11-22T07:51:15;7.30;99.90
30037;DHT22;36325;51.512;-0.382;2023-11-22T07:53:44;7.20;99.90
30037;DHT22;36325;51.512;-0.382;2023-11-22T07:56:12;7.20;99.90
30037;DHT22;36325;51.512;-0.382;2023-11-22T07:58:42;7.30;99.90
30037;DHT22;36325;51.512;-0.382;2023-11-22T08:01:15;7.30;99.90
30037;DHT22;36325;51.512;-0.382;2023-11-22T08:03:44;8.90;99.90
30037;DHT22;36325;51.512;-0.382;2023-11-22T08:06:15;7.40;99.90
30037;DHT22;36325;51.512;-0.382;2023-11-22T08:08:44;7.40;99.90
30037;DHT22;36325;51.512;-0.382;2023-11-22T08:11:15;7.40;99.90
30037;DHT22;36325;51.512;-0.382;2023-11-22T08:13:43;7.50;99.90
30037;DHT22;36325;51.512;-0.382;2023-11-22T08:16:14;7.50;99.90
30037;DHT22;36325;51.512;-0.382;2023-11-22T08:18:42;7.60;99.90
30037;DHT22;36325;51.512;-0.382;2023-11-22T08:21:16;7.60;99.90
30037;DHT22;36325;51.512;-0.382;2023-11-22T08:23:47;7.60;99.90
30037;DHT22;36325;51.512;-0.382;2023-11-22T08:26:15;7.60;99.90
30037;DHT22;36325;51.512;-0.382;2023-11-22T08:28:47;7.70;99.90
30037;DHT22;36325;51.512;-0.382;2023-11-22T08:31:16;7.80;99.90
30037;DHT22;36325;51.512;-0.382;2023-11-22T08:33:45;7.80;99.90
30037;DHT22;36325;51.512;-0.382;2023-11-22T08:36:16;7.90;99.90
30037;DHT22;36325;51.512;-0.382;2023-11-22T08:38:53;8.00;99.90
30037;DHT22;36325;51.512;-0.382;2023-11-22T08:41:26;8.00;99.90
30037;DHT22;36325;51.512;-0.382;2023-11-22T08:43:56;8.10;99.90
30037;DHT22;36325;51.512;-0.382;2023-11-22T08:46:25;8.10;99.90
30037;DHT22;36325;51.512;-0.382;2023-11-22T08:48:58;8.20;99.90
30037;DHT22;36325;51.512;-0.382;2023-11-22T08:51:28;8.20;99.90
30037;DHT22;36325;51.512;-0.382;2023-11-22T08:53:58;8.20;99.90
30037;DHT22;36325;51.512;-0.382;2023-11-22T08:56:27;8.30;99.90
30037;DHT22;36325;51.512;-0.382;2023-11-22T08:58:58;8.30;99.90
30037;DHT22;36325;51.512;-0.382;2023-11-22T09:01:31;8.40;99.90
30037;DHT22;36325;51.512;-0.382;2023-11-22T09:04:00;8.50;99.90
30037;DHT22;36325;51.512;-0.382;2023-11-22T09:06:31;8.60;99.90
30037;DHT22;36325;51.512;-0.382;2023-11-22T09:09:00;8.70;99.90
30037;DHT22;36325;51.512;-0.382;2023-11-22T09:11:34;8.80;99.90
30037;DHT22;36325;51.512;-0.382;2023-11-22T09:14:06;8.90;99.90
30037;DHT22;36325;51.512;-0.382;2023-11-22T09:16:35;9.00;99.90
30037;DHT22;36325;51.512;-0.382;2023-11-22T09:19:06;9.10;99.90
30037;DHT22;36325;51.512;-0.382;2023-11-22T09:21:36;9.10;99.90
30037;DHT22;36325;51.512;-0.382;2023-11-22T09:24:04;9.20;99.90
30037;DHT22;36325;51.512;-0.382;2023-11-22T09:26:37;9.30;99.90
30037;DHT22;36325;51.512;-0.382;2023-11-22T09:29:05;9.30;99.90
30037;DHT22;36325;51.512;-0.382;2023-11-22T09:31:39;9.20;99.90
30037;DHT22;36325;51.512;-0.382;2023-11-22T09:34:10;9.20;99.90
30037;DHT22;36325;51.512;-0.382;2023-11-22T09:36:39;9.10;99.90
30037;DHT22;36325;51.512;-0.382;2023-11-22T09:39:07;9.10;99.90
30037;DHT22;36325;51.512;-0.382;2023-11-22T09:41:36;9.10;99.90
30037;DHT22;36325;51.512;-0.382;2023-11-22T09:44:04;9.10;99.90
30037;DHT22;36325;51.512;-0.382;2023-11-22T09:46:36;9.10;99.90
30037;DHT22;36325;51.512;-0.382;2023-11-22T09:49:05;9.10;99.90
30037;DHT22;36325;51.512;-0.382;2023-11-22T09:51:35;9.10;99.90
30037;DHT22;36325;51.512;-0.382;2023-11-22T09:54:05;9.00;99.90
30037;DHT22;36325;51.512;-0.382;2023-11-22T09:56:35;9.10;99.90
30037;DHT22;36325;51.512;-0.382;2023-11-22T09:59:07;9.00;99.90
30037;DHT22;36325;51.512;-0.382;2023-11-22T10:01:35;9.10;99.90
30037;DHT22;36325;51.512;-0.382;2023-11-22T10:04:08;9.10;99.90
30037;DHT22;36325;51.512;-0.382;2023-11-22T10:06:37;9.00;99.90
30037;DHT22;36325;51.512;-0.382;2023-11-22T10:09:08;9.00;99.90
30037;DHT22;36325;51.512;-0.382;2023-11-22T10:11:37;9.10;99.90
30037;DHT22;36325;51.512;-0.382;2023-11-22T10:14:08;9.10;99.90
30037;DHT22;36325;51.512;-0.382;2023-11-22T10:16:37;9.10;99.90
30037;DHT22;36325;51.512;-0.382;2023-11-22T10:22:07;9.10;99.90
30037;DHT22;36325;51.512;-0.382;2023-11-22T10:24:37;9.20;99.90
30037;DHT22;36325;51.512;-0.382;2023-11-22T10:27:05;9.10;99.90
30037;DHT22;36325;51.512;-0.382;2023-11-22T10:29:33;9.20;99.90
30037;DHT22;36325;51.512;-0.382;2023-11-22T10:32:00;9.20;99.90
30037;DHT22;36325;51.512;-0.382;2023-11-22T10:34:33;9.20;99.90
30037;DHT22;36325;51.512;-0.382;2023-11-22T10:37:05;9.30;99.90
30037;DHT22;36325;51.512;-0.382;2023-11-22T10:39:32;9.30;99.90
30037;DHT22;36325;51.512;-0.382;2023-11-22T10:42:04;9.30;99.90
30037;DHT22;36325;51.512;-0.382;2023-11-22T10:44:33;9.40;99.90
30037;DHT22;36325;51.512;-0.382;2023-11-22T10:47:02;9.40;99.90
30037;DHT22;36325;51.512;-0.382;2023-11-22T10:49:31;9.50;99.90
30037;DHT22;36325;51.512;-0.382;2023-11-22T10:51:58;9.50;99.90
30037;DHT22;36325;51.512;-0.382;2023-11-22T10:54:29;9.70;99.90
30037;DHT22;36325;51.512;-0.382;2023-11-22T10:56:57;9.50;99.90
30037;DHT22;36325;51.512;-0.382;2023-11-22T10:59:27;9.60;99.90
30037;DHT22;36325;51.512;-0.382;2023-11-22T11:01:58;9.70;99.90
30037;DHT22;36325;51.512;-0.382;2023-11-22T11:04:34;9.80;99.90
30037;DHT22;36325;51.512;-0.382;2023-11-22T11:07:04;9.90;99.90
30037;DHT22;36325;51.512;-0.382;2023-11-22T11:09:33;9.70;99.90
30037;DHT22;36325;51.512;-0.382;2023-11-22T11:12:02;9.90;99.90
30037;DHT22;36325;51.512;-0.382;2023-11-22T11:14:33;9.90;99.90
30037;DHT22;36325;51.512;-0.382;2023-11-22T11:17:01;10.00;99.90
30037;DHT22;36325;51.512;-0.382;2023-11-22T11:19:28;10.00;99.90
30037;DHT22;36325;51.512;-0.382;2023-11-22T11:21:59;10.10;99.90
30037;DHT22;36325;51.512;-0.382;2023-11-22T11:24:29;10.00;99.90
30037;DHT22;36325;51.512;-0.382;2023-11-22T11:27:02;10.10;99.90
30037;DHT22;36325;51.512;-0.382;2023-11-22T11:31:59;10.10;99.90
30037;DHT22;36325;51.512;-0.382;2023-11-22T11:34:26;10.20;99.90
30037;DHT22;36325;51.512;-0.382;2023-11-22T11:36:56;10.10;99.90
30037;DHT22;36325;51.512;-0.382;2023-11-22T11:39:26;10.20;99.90
30037;DHT22;36325;51.512;-0.382;2023-11-22T11:42:11;10.20;99.90
30037;DHT22;36325;51.512;-0.382;2023-11-22T11:47:30;10.20;99.90
30037;DHT22;36325;51.512;-0.382;2023-11-22T11:49:59;10.20;99.90
30037;DHT22;36325;51.512;-0.382;2023-11-22T11:52:29;10.70;99.90
30037;DHT22;36325;51.512;-0.382;2023-11-22T11:55:02;10.10;99.90
30037;DHT22;36325;51.512;-0.382;2023-11-22T11:57:33;10.10;99.90
30037;DHT22;36325;51.512;-0.382;2023-11-22T12:00:01;10.10;99.90
30037;DHT22;36325;51.512;-0.382;2023-11-22T12:02:37;10.10;99.90
30037;DHT22;36325;51.512;-0.382;2023-11-22T12:05:04;10.10;99.90
30037;DHT22;36325;51.512;-0.382;2023-11-22T12:07:36;10.10;99.90
30037;DHT22;36325;51.512;-0.382;2023-11-22T12:10:05;10.20;99.90
30037;DHT22;36325;51.512;-0.382;2023-11-22T12:12:36;10.20;99.90
30037;DHT22;36325;51.512;-0.382;2023-11-22T12:15:03;10.30;99.90
30037;DHT22;36325;51.512;-0.382;2023-11-22T12:17:31;10.30;99.90
30037;DHT22;36325;51.512;-0.382;2023-11-22T12:20:10;10.40;99.90
30037;DHT22;36325;51.512;-0.382;2023-11-22T12:22:41;9.70;99.90
30037;DHT22;36325;51.512;-0.382;2023-11-22T12:25:11;10.30;99.90
30037;DHT22;36325;51.512;-0.382;2023-11-22T12:30:35;10.30;99.90
30037;DHT22;36325;51.512;-0.382;2023-11-22T12:33:09;10.40;99.90
30037;DHT22;36325;51.512;-0.382;2023-11-22T12:35:40;10.50;99.90
30037;DHT22;36325;51.512;-0.382;2023-11-22T12:38:17;10.50;99.90
30037;DHT22;36325;51.512;-0.382;2023-11-22T12:40:48;10.50;99.90
30037;DHT22;36325;51.512;-0.382;2023-11-22T12:43:16;10.60;99.90
30037;DHT22;36325;51.512;-0.382;2023-11-22T12:45:45;10.60;99.90
30037;DHT22;36325;51.512;-0.382;2023-11-22T12:50:59;10.70;99.90
30037;DHT22;36325;51.512;-0.382;2023-11-22T12:53:29;10.70;99.90
30037;DHT22;36325;51.512;-0.382;2023-11-22T12:56:11;10.80;99.90
30037;DHT22;36325;51.512;-0.382;2023-11-22T12:58:43;10.80;99.90
30037;DHT22;36325;51.512;-0.382;2023-11-22T13:01:14;10.80;99.90
30037;DHT22;36325;51.512;-0.382;2023-11-22T13:03:44;10.90;99.90
30037;DHT22;36325;51.512;-0.382;2023-11-22T13:06:12;10.90;99.90
30037;DHT22;36325;51.512;-0.382;2023-11-22T13:08:43;10.90;99.90
30037;DHT22;36325;51.512;-0.382;2023-11-22T13:11:12;10.90;99.90
30037;DHT22;36325;51.512;-0.382;2023-11-22T13:13:40;11.00;99.90
30037;DHT22;36325;51.512;-0.382;2023-11-22T13:16:07;11.00;99.90
30037;DHT22;36325;51.512;-0.382;2023-11-22T13:18:35;11.00;99.90
30037;DHT22;36325;51.512;-0.382;2023-11-22T13:21:04;11.00;99.90
30037;DHT22;36325;51.512;-0.382;2023-11-22T13:23:33;11.00;99.90
30037;DHT22;36325;51.512;-0.382;2023-11-22T13:26:00;11.10;99.90
30037;DHT22;36325;51.512;-0.382;2023-11-22T13:28:31;11.10;99.90
30037;DHT22;36325;51.512;-0.382;2023-11-22T13:31:00;11.10;99.90
30037;DHT22;36325;51.512;-0.382;2023-11-22T13:33:30;11.00;99.90
30037;DHT22;36325;51.512;-0.382;2023-11-22T13:35:59;11.00;99.90
30037;DHT22;36325;51.512;-0.382;2023-11-22T13:38:27;10.90;99.90
30037;DHT22;36325;51.512;-0.382;2023-11-22T13:40:54;10.90;99.90
30037;DHT22;36325;51.512;-0.382;2023-11-22T13:43:23;10.90;99.90
30037;DHT22;36325;51.512;-0.382;2023-11-22T13:45:50;10.90;99.90
30037;DHT22;36325;51.512;-0.382;2023-11-22T13:48:19;10.90;99.90
30037;DHT22;36325;51.512;-0.382;2023-11-22T13:50:46;10.00;99.90
30037;DHT22;36325;51.512;-0.382;2023-11-22T13:53:18;10.90;99.90
30037;DHT22;36325;51.512;-0.382;2023-11-22T13:55:49;10.90;99.90
30037;DHT22;36325;51.512;-0.382;2023-11-22T13:58:23;10.90;99.90
30037;DHT22;36325;51.512;-0.382;2023-11-22T14:00:54;10.90;99.90
30037;DHT22;36325;51.512;-0.382;2023-11-22T14:03:23;10.90;99.90
30037;DHT22;36325;51.512;-0.382;2023-11-22T14:05:52;10.90;99.90
30037;DHT22;36325;51.512;-0.382;2023-11-22T14:08:22;10.90;99.90
30037;DHT22;36325;51.512;-0.382;2023-11-22T14:10:54;10.90;99.90
30037;DHT22;36325;51.512;-0.382;2023-11-22T14:13:23;10.90;99.90
30037;DHT22;36325;51.512;-0.382;2023-11-22T14:15:51;10.90;99.90
30037;DHT22;36325;51.512;-0.382;2023-11-22T14:18:26;10.90;99.90
30037;DHT22;36325;51.512;-0.382;2023-11-22T14:26:30;10.90;99.90
30037;DHT22;36325;51.512;-0.382;2023-11-22T14:28:57;11.00;99.90
30037;DHT22;36325;51.512;-0.382;2023-11-22T14:31:26;11.00;99.90
30037;DHT22;36325;51.512;-0.382;2023-11-22T14:33:54;11.00;99.90
30037;DHT22;36325;51.512;-0.382;2023-11-22T14:36:26;11.00;99.90
30037;DHT22;36325;51.512;-0.382;2023-11-22T14:38:53;11.10;99.90
30037;DHT22;36325;51.512;-0.382;2023-11-22T14:41:24;11.00;99.90
30037;DHT22;36325;51.512;-0.382;2023-11-22T14:43:54;11.00;99.90
30037;DHT22;36325;51.512;-0.382;2023-11-22T14:46:21;11.00;99.90
30037;DHT22;36325;51.512;-0.382;2023-11-22T14:48:51;10.90;99.90
30037;DHT22;36325;51.512;-0.382;2023-11-22T14:51:20;10.90;99.90
30037;DHT22;36325;51.512;-0.382;2023-11-22T14:53:48;10.90;99.90
30037;DHT22;36325;51.512;-0.382;2023-11-22T14:59:00;10.90;99.90
30037;DHT22;36325;51.512;-0.382;2023-11-22T15:01:59;10.90;99.90
30037;DHT22;36325;51.512;-0.382;2023-11-22T15:04:31;10.90;99.90
30037;DHT22;36325;51.512;-0.382;2023-11-22T15:07:00;10.90;99.90
30037;DHT22;36325;51.512;-0.382;2023-11-22T15:09:30;10.90;99.90
30037;DHT22;36325;51.512;-0.382;2023-11-22T15:12:05;10.90;99.90
30037;DHT22;36325;51.512;-0.382;2023-11-22T15:17:26;10.90;99.90
30037;DHT22;36325;51.512;-0.382;2023-11-22T15:19:53;10.90;99.90
30037;DHT22;36325;51.512;-0.382;2023-11-22T15:22:27;10.90;99.90
30037;DHT22;36325;51.512;-0.382;2023-11-22T15:24:54;11.30;99.90
30037;DHT22;36325;51.512;-0.382;2023-11-22T15:27:25;10.90;99.90
30037;DHT22;36325;51.512;-0.382;2023-11-22T15:29:54;10.90;99.90
30037;DHT22;36325;51.512;-0.382;2023-11-22T15:32:22;10.90;99.90
30037;DHT22;36325;51.512;-0.382;2023-11-22T15:34:59;10.90;99.90
30037;DHT22;36325;51.512;-0.382;2023-11-22T15:37:30;10.90;99.90
30037;DHT22;36325;51.512;-0.382;2023-11-22T15:39:58;10.90;99.90
30037;DHT22;36325;51.512;-0.382;2023-11-22T15:42:28;10.90;99.90
30037;DHT22;36325;51.512;-0.382;2023-11-22T15:44:57;10.90;99.90
30037;DHT22;36325;51.512;-0.382;2023-11-22T15:47:28;10.80;99.90
30037;DHT22;36325;51.512;-0.382;2023-11-22T15:49:57;10.80;99.90
30037;DHT22;36325;51.512;-0.382;2023-11-22T15:52:30;10.90;99.90
30037;DHT22;36325;51.512;-0.382;2023-11-22T15:54:58;10.80;99.90
30037;DHT22;36325;51.512;-0.382;2023-11-22T15:57:27;10.80;99.90
30037;DHT22;36325;51.512;-0.382;2023-11-22T15:59:54;10.80;99.90
30037;DHT22;36325;51.512;-0.382;2023-11-22T16:02:26;10.80;99.90
30037;DHT22;36325;51.512;-0.382;2023-11-22T16:04:58;10.80;99.90
30037;DHT22;36325;51.512;-0.382;2023-11-22T16:07:26;10.80;99.90
30037;DHT22;36325;51.512;-0.382;2023-11-22T16:09:54;10.90;99.90
30037;DHT22;36325;51.512;-0.382;2023-11-22T16:15:17;10.80;99.90
30037;DHT22;36325;51.512;-0.382;2023-11-22T16:20:19;10.80;99.90
30037;DHT22;36325;51.512;-0.382;2023-11-22T16:22:48;10.80;99.90
30037;DHT22;36325;51.512;-0.382;2023-11-22T16:25:20;10.80;99.90